Time;durP1;ratioP1;P1;durP2;ratioP2;P2;SDS_P1;SDS_P2;PMS_P1;PMS_P2;Temp;Humidity;BMP_temperature;BMP_pressure;BME280_temperature;BME280_humidity;BME280_pressure;Samples;Min_cycle;Max_cycle;Signal;HPM_P1;HPM_P2
2023/07/05 00:00:11;;;;;;;9.85;3.17;;;;;;;-146.25;100.00;52197.88;2089312;28;36336;-70
2023/07/05 00:01:13;;;;;;;10.45;3.47;;;;;;;-146.25;100.00;52159.34;2088414;28;43271;-70
2023/07/05 00:02:15;;;;;;;8.48;3.33;;;;;;;-146.25;100.00;52167.47;2089217;28;30728;-70
2023/07/05 00:03:17;;;;;;;10.25;3.67;;;;;;;-146.25;100.00;52197.88;2088890;28;38661;-71
2023/07/05 00:04:19;;;;;;;7.38;3.47;;;;;;;-146.25;100.00;52147.19;2089249;28;38651;-70
2023/07/05 00:05:21;;;;;;;11.93;3.25;;;;;;;-146.25;100.00;52193.81;2089518;28;20107;-71
2023/07/05 00:06:25;;;;;;;9.30;3.80;;;;;;;-146.25;100.00;52179.63;2089309;28;38563;-71
2023/07/05 00:07:27;;;;;;;12.20;3.47;;;;;;;-146.25;100.00;52177.59;2088685;28;37077;-71
2023/07/05 00:08:29;;;;;;;6.85;3.20;;;;;;;-146.25;100.00;52181.66;2089611;28;30281;-71
2023/07/05 00:09:30;;;;;;;9.48;3.03;;;;;;;-146.25;100.00;52133.00;2088801;28;36451;-70
2023/07/05 00:10:32;;;;;;;9.60;3.13;;;;;;;-146.25;100.00;52122.88;2089871;28;23119;-69
2023/07/05 00:11:34;;;;;;;10.13;3.70;;;;;;;-146.25;100.00;52179.63;2088831;28;34260;-69
2023/07/05 00:12:38;;;;;;;10.55;3.45;;;;;;;-146.25;100.00;52187.75;2088609;28;37430;-69
2023/07/05 00:13:40;;;;;;;12.52;3.75;;;;;;;-146.25;100.00;52173.56;2088908;28;33878;-69
2023/07/05 00:14:42;;;;;;;9.27;3.53;;;;;;;-146.25;100.00;52169.50;2088982;28;37290;-69
2023/07/05 00:15:47;;;;;;;10.55;3.78;;;;;;;-146.25;100.00;52157.34;2089371;28;32011;-69
2023/07/05 00:16:49;;;;;;;6.47;3.15;;;;;;;-146.25;100.00;52153.28;2089648;28;32191;-69
2023/07/05 00:17:52;;;;;;;9.05;3.58;;;;;;;-146.25;100.00;52171.53;2088908;28;35994;-70
2023/07/05 00:18:56;;;;;;;8.52;3.30;;;;;;;-146.25;100.00;52193.81;2089829;28;20979;-70
2023/07/05 00:19:57;;;;;;;9.55;3.40;;;;;;;-146.25;100.00;52167.47;2088838;28;31386;-71
2023/07/05 00:21:06;;;;;;;10.57;3.85;;;;;;;-146.25;100.00;52157.34;2089489;28;31451;-71
2023/07/05 00:22:08;;;;;;;8.85;3.50;;;;;;;-146.25;100.00;52185.72;2088122;28;35468;-70
2023/07/05 00:23:09;;;;;;;9.80;3.47;;;;;;;-146.25;100.00;52161.38;2077586;28;37335;-71
2023/07/05 00:24:11;;;;;;;9.13;3.30;;;;;;;-146.25;100.00;52161.38;2080516;28;36444;-70
2023/07/05 00:25:15;;;;;;;10.43;3.65;;;;;;;-146.25;100.00;52189.78;2080747;28;34537;-71
2023/07/05 00:26:17;;;;;;;9.45;3.45;;;;;;;-146.25;100.00;52185.72;2080197;28;34564;-71
2023/07/05 00:27:24;;;;;;;8.43;3.72;;;;;;;-146.25;100.00;52153.28;2080914;28;20176;-70
2023/07/05 00:28:26;;;;;;;8.05;3.40;;;;;;;-146.25;100.00;52141.13;2081067;28;27712;-69
2023/07/05 00:29:28;;;;;;;11.43;3.75;;;;;;;-146.25;100.00;52197.88;2080112;28;30366;-69
2023/07/05 00:30:32;;;;;;;8.68;3.70;;;;;;;-146.25;100.00;52153.28;2080287;28;32251;-69
2023/07/05 00:31:34;;;;;;;9.65;3.92;;;;;;;-146.25;100.00;52151.25;2081818;28;20046;-70
2023/07/05 00:32:36;;;;;;;9.32;3.60;;;;;;;-146.25;100.00;52143.13;2080533;28;20141;-71
2023/07/05 00:33:38;;;;;;;10.48;3.92;;;;;;;-146.25;100.00;52175.56;2079878;28;26328;-70
2023/07/05 00:34:40;;;;;;;10.07;4.10;;;;;;;-146.25;100.00;52149.22;2080347;28;20940;-70
2023/07/05 00:35:51;;;;;;;8.32;3.65;;;;;;;-146.25;100.00;52161.38;2080063;28;29919;-71
2023/07/05 00:36:53;;;;;;;7.75;3.85;;;;;;;-146.25;100.00;52143.13;2081605;28;20903;-69
2023/07/05 00:37:54;;;;;;;12.10;4.00;;;;;;;-146.25;100.00;52185.72;2080739;28;30254;-70
2023/07/05 00:38:56;;;;;;;9.65;4.03;;;;;;;-146.25;100.00;52181.66;2080263;28;25158;-70
2023/07/05 00:39:58;;;;;;;10.25;3.80;;;;;;;-146.25;100.00;52201.94;2080360;28;31896;-71
2023/07/05 00:41:02;;;;;;;12.18;4.28;;;;;;;-146.25;100.00;52201.94;2080780;28;31656;-68
2023/07/05 00:42:05;;;;;;;13.05;5.03;;;;;;;-146.25;100.00;52163.41;2080638;28;20169;-70
2023/07/05 00:43:08;;;;;;;10.32;3.72;;;;;;;-146.25;100.00;52159.34;2071951;28;23839;-70
2023/07/05 00:44:13;;;;;;;12.77;4.10;;;;;;;-146.25;100.00;52133.00;2080264;28;29243;-69
2023/07/05 00:45:19;;;;;;;10.73;4.53;;;;;;;-146.25;100.00;52161.38;2081308;28;20949;-69
2023/07/05 00:46:29;;;;;;;11.57;4.13;;;;;;;-146.25;100.00;52171.53;2080557;28;30762;-69
2023/07/05 00:47:34;;;;;;;7.93;4.22;;;;;;;-146.25;100.00;52141.13;2080841;28;27821;-69
2023/07/05 00:48:51;;;;;;;12.75;4.10;;;;;;;-146.25;100.00;52139.09;2079174;28;23905;-70
2023/07/05 00:50:00;;;;;;;11.00;4.47;;;;;;;-146.25;100.00;52161.38;2081035;28;20088;-69
2023/07/05 00:51:36;;;;;;;11.80;4.47;;;;;;;-146.25;100.00;52157.34;2079754;28;31971;-71
2023/07/05 00:52:39;;;;;;;12.88;4.30;;;;;;;-146.25;100.00;52177.59;2078308;28;32395;-69
2023/07/05 00:53:41;;;;;;;11.95;4.55;;;;;;;-146.25;100.00;52185.72;2088534;28;20822;-69
2023/07/05 00:54:55;;;;;;;10.60;4.88;;;;;;;-146.25;100.00;52151.25;2080170;28;30673;-69
2023/07/05 00:56:09;;;;;;;8.65;4.13;;;;;;;-146.25;100.00;52165.44;2090218;28;20050;-71
2023/07/05 00:57:20;;;;;;;11.75;4.30;;;;;;;-146.25;100.00;52130.97;2086872;28;20179;-71
2023/07/05 00:58:25;;;;;;;11.88;4.35;;;;;;;-146.25;100.00;52159.34;2092022;28;20030;-70
2023/07/05 00:59:33;;;;;;;8.98;4.13;;;;;;;-146.25;100.00;52139.09;2088306;28;27000;-71
2023/07/05 01:00:35;;;;;;;11.23;4.65;;;;;;;-146.25;100.00;52175.56;2089703;28;29148;-70
2023/07/05 01:01:38;;;;;;;11.00;4.97;;;;;;;-146.25;100.00;52128.94;2095628;28;24016;-70
2023/07/05 01:02:58;;;;;;;14.10;4.60;;;;;;;-146.25;100.00;52106.66;2088804;28;20057;-69
2023/07/05 01:04:04;;;;;;;10.20;4.53;;;;;;;-146.25;100.00;52173.56;2080531;28;20026;-70
2023/07/05 01:05:09;;;;;;;13.13;4.80;;;;;;;-146.25;100.00;52195.84;2081458;28;28376;-70
2023/07/05 01:06:14;;;;;;;11.90;4.30;;;;;;;-146.25;100.00;52157.34;2088156;28;23093;-70
2023/07/05 01:07:15;;;;;;;9.00;4.18;;;;;;;-146.25;100.00;52161.38;2087841;28;30570;-70
2023/07/05 01:08:20;;;;;;;10.02;4.10;;;;;;;-146.25;100.00;52206.00;2088496;28;20127;-70
2023/07/05 01:09:26;;;;;;;8.93;4.28;;;;;;;-146.25;100.00;52171.53;2080734;28;20161;-70
2023/07/05 01:10:28;;;;;;;8.73;4.30;;;;;;;-146.25;100.00;52173.56;2088609;28;25344;-70
2023/07/05 01:11:44;;;;;;;7.93;3.70;;;;;;;-146.25;100.00;52169.50;2089026;28;22461;-70
2023/07/05 01:12:59;;;;;;;11.23;4.43;;;;;;;-146.25;100.00;52133.00;2088630;28;20034;-71
2023/07/05 01:14:17;;;;;;;9.90;4.07;;;;;;;-146.25;100.00;52141.13;2088450;28;30952;-71
2023/07/05 01:15:31;;;;;;;10.20;4.65;;;;;;;-146.25;100.00;52157.34;2088594;28;25403;-69
2023/07/05 01:17:04;;;;;;;9.73;4.35;;;;;;;-146.25;100.00;52153.28;2092030;28;32678;-70
2023/07/05 01:18:34;;;;;;;13.43;4.57;;;;;;;-146.25;100.00;52181.66;2088289;28;29027;-70
2023/07/05 01:19:57;;;;;;;10.02;4.90;;;;;;;-146.25;100.00;52201.94;2089017;28;33635;-70
2023/07/05 01:21:10;;;;;;;12.20;4.43;;;;;;;-146.25;100.00;52137.06;2079931;28;29711;-71
2023/07/05 01:22:32;;;;;;;8.55;4.18;;;;;;;-146.25;100.00;52169.50;2076523;28;20046;-70
2023/07/05 01:24:08;;;;;;;9.70;4.28;;;;;;;-146.25;100.00;52175.56;2092767;28;27275;-70
2023/07/05 01:25:40;;;;;;;11.60;4.28;;;;;;;-146.25;100.00;52181.66;2088960;28;20029;-70
2023/07/05 01:27:36;;;;;;;10.18;4.53;;;;;;;-146.25;100.00;52147.19;2088669;28;30227;-71
2023/07/05 01:29:03;;;;;;;10.27;4.25;;;;;;;-146.25;100.00;52169.50;2088091;28;20119;-70
2023/07/05 01:30:25;;;;;;;9.15;4.10;;;;;;;-146.25;100.00;52206.00;2088400;28;34011;-70
2023/07/05 01:32:02;;;;;;;11.93;4.15;;;;;;;-146.25;100.00;52163.41;2088505;28;26017;-70
2023/07/05 01:33:19;;;;;;;9.95;4.57;;;;;;;-146.25;100.00;52151.25;2088873;28;29311;-71
2023/07/05 01:34:48;;;;;;;12.00;4.38;;;;;;;-146.25;100.00;52173.56;2088731;28;31218;-71
2023/07/05 01:35:54;;;;;;;13.52;4.38;;;;;;;-146.25;100.00;52169.50;2088985;28;25558;-69
2023/07/05 01:36:56;;;;;;;12.07;5.03;;;;;;;-146.25;100.00;52177.59;2088757;28;22513;-70
2023/07/05 01:38:04;;;;;;;12.48;4.28;;;;;;;-146.25;100.00;52169.50;2088251;28;31568;-69
2023/07/05 01:39:06;;;;;;;10.32;4.57;;;;;;;-146.25;100.00;52185.72;2096216;28;24892;-71
2023/07/05 01:40:24;;;;;;;13.43;4.55;;;;;;;-146.25;100.00;52187.75;2089185;28;20033;-71
2023/07/05 01:41:26;;;;;;;10.07;4.43;;;;;;;-146.25;100.00;52177.59;2089379;28;20033;-71
2023/07/05 01:42:32;;;;;;;9.98;4.95;;;;;;;-146.25;100.00;52187.75;2088342;28;20038;-70
2023/07/05 01:43:41;;;;;;;8.45;4.35;;;;;;;-146.25;100.00;52153.28;2080182;28;29724;-71
2023/07/05 01:44:43;;;;;;;11.25;4.15;;;;;;;-146.25;100.00;52159.34;2089017;28;30150;-70
2023/07/05 01:46:22;;;;;;;14.50;5.32;;;;;;;-146.25;100.00;52124.91;2095976;28;22582;-70
2023/07/05 01:47:45;;;;;;;9.98;4.30;;;;;;;-146.25;100.00;52183.69;2079431;28;35755;-71
2023/07/05 01:49:32;;;;;;;9.10;4.13;;;;;;;-146.25;100.00;52169.50;2080749;28;27636;-70
2023/07/05 01:50:43;;;;;;;8.93;4.38;;;;;;;-146.25;100.00;52165.44;2087651;28;25068;-70
2023/07/05 01:51:54;;;;;;;;;;;;;;;-146.25;100.00;52167.47;2082045;28;24430;-70
2023/07/05 01:53:07;;;;;;;11.25;4.47;;;;;;;-146.25;100.00;52169.50;2088536;28;20154;-71
2023/07/05 01:54:23;;;;;;;10.77;4.53;;;;;;;-146.25;100.00;52181.66;2089011;28;24078;-70
2023/07/05 01:55:38;;;;;;;9.68;4.47;;;;;;;-146.25;100.00;52193.81;2079648;28;33080;-71
2023/07/05 01:57:04;;;;;;;9.30;4.75;;;;;;;-146.25;100.00;52139.09;2084006;28;20021;-71
2023/07/05 01:58:16;;;;;;;12.52;4.80;;;;;;;-146.25;100.00;52177.59;2080209;28;20942;-70
2023/07/05 01:59:23;;;;;;;10.10;4.32;;;;;;;-146.25;100.00;52159.34;2075639;28;20072;-70
2023/07/05 02:00:28;;;;;;;10.52;4.78;;;;;;;-146.25;100.00;52189.78;2069798;28;20070;-70
2023/07/05 02:01:34;;;;;;;10.27;4.82;;;;;;;-146.25;100.00;52165.44;2074016;28;20054;-71
2023/07/05 02:02:45;;;;;;;12.65;4.93;;;;;;;-146.25;100.00;52179.63;2071711;28;20065;-71
2023/07/05 02:03:50;;;;;;;8.13;4.88;;;;;;;-146.25;100.00;52173.56;2074882;28;20046;-71
2023/07/05 02:04:54;;;;;;;9.23;4.85;;;;;;;-146.25;100.00;52167.47;2087647;28;20038;-71
2023/07/05 02:05:56;;;;;;;11.20;5.25;;;;;;;-146.25;100.00;52169.50;2079774;28;20053;-71
2023/07/05 02:06:57;;;;;;;8.85;5.20;;;;;;;-146.25;100.00;52143.13;2079526;28;28283;-71
2023/07/05 02:07:59;;;;;;;10.48;5.68;;;;;;;-146.25;100.00;52145.16;2071614;28;27330;-71
2023/07/05 02:09:01;;;;;;;14.10;5.55;;;;;;;-146.25;100.00;52147.19;2071738;28;33855;-71
2023/07/05 02:10:03;;;;;;;11.50;5.30;;;;;;;-146.25;100.00;52191.81;2080159;28;20045;-71
2023/07/05 02:11:05;;;;;;;14.98;5.75;;;;;;;-146.25;100.00;52193.81;2080345;28;33012;-71
2023/07/05 02:12:09;;;;;;;14.32;5.60;;;;;;;-146.25;100.00;52199.91;2087690;28;31865;-71
2023/07/05 02:13:17;;;;;;;12.43;5.82;;;;;;;-146.25;100.00;52169.50;2079210;28;20096;-71
2023/07/05 02:14:21;;;;;;;15.75;5.53;;;;;;;-146.25;100.00;52181.66;2073885;28;20162;-71
2023/07/05 02:15:23;;;;;;;14.57;6.18;;;;;;;-146.25;100.00;52175.56;2080418;28;25026;-71
2023/07/05 02:16:27;;;;;;;12.57;5.65;;;;;;;-146.25;100.00;52163.41;2088231;28;20054;-71
2023/07/05 02:17:29;;;;;;;9.02;5.97;;;;;;;-146.25;100.00;52179.63;2080043;28;20124;-71
2023/07/05 02:18:31;;;;;;;10.43;5.53;;;;;;;-146.25;100.00;52163.41;2070982;28;20038;-72
2023/07/05 02:19:34;;;;;;;11.77;6.40;;;;;;;-146.25;100.00;52161.38;2079704;28;20156;-71
2023/07/05 02:20:37;;;;;;;9.57;5.47;;;;;;;-146.25;100.00;52173.56;2087419;28;20041;-71
2023/07/05 02:21:39;;;;;;;11.55;6.15;;;;;;;-146.25;100.00;52206.00;2080070;28;21587;-71
2023/07/05 02:22:41;;;;;;;12.35;6.53;;;;;;;-146.25;100.00;52173.56;2087142;28;34271;-72
2023/07/05 02:23:43;;;;;;;14.38;6.05;;;;;;;-146.25;100.00;52173.56;2079298;28;28225;-71
2023/07/05 02:24:50;;;;;;;13.93;7.32;;;;;;;-146.25;100.00;52185.72;2079830;28;29962;-74
2023/07/05 02:25:58;;;;;;;17.25;6.97;;;;;;;-146.25;100.00;52171.53;2079694;28;33587;-75
2023/07/05 02:26:59;;;;;;;14.38;7.28;;;;;;;-146.25;100.00;52165.44;2072442;28;22891;-74
2023/07/05 02:28:09;;;;;;;16.80;7.13;;;;;;;-146.25;100.00;52161.38;2079573;28;33327;-74
2023/07/05 02:29:11;;;;;;;18.67;8.02;;;;;;;-146.25;100.00;52191.81;2081060;28;20097;-74
2023/07/05 02:30:13;;;;;;;16.48;7.78;;;;;;;-146.25;100.00;52201.94;2087618;28;28397;-74
2023/07/05 02:31:18;;;;;;;15.75;7.65;;;;;;;-146.25;100.00;52201.94;2087242;28;20044;-74
2023/07/05 02:32:20;;;;;;;15.48;7.93;;;;;;;-146.25;100.00;52169.50;2079764;28;24775;-74
2023/07/05 02:33:24;;;;;;;18.00;8.15;;;;;;;-146.25;100.00;52201.94;2080167;28;20049;-73
2023/07/05 02:34:29;;;;;;;19.23;8.07;;;;;;;-146.25;100.00;52177.59;2080306;28;26030;-73
2023/07/05 02:35:38;;;;;;;15.82;9.10;;;;;;;-146.25;100.00;52173.56;2079792;28;20965;-72
2023/07/05 02:36:40;;;;;;;15.40;8.57;;;;;;;-146.25;100.00;52185.72;2080158;28;28942;-72
2023/07/05 02:37:42;;;;;;;12.23;9.15;;;;;;;-146.25;100.00;52157.34;2079259;28;20081;-70
2023/07/05 02:38:43;;;;;;;18.77;9.15;;;;;;;-146.25;100.00;52179.63;2079095;28;38223;-71
2023/07/05 02:39:45;;;;;;;16.95;9.07;;;;;;;-146.25;100.00;52153.28;2080467;28;25613;-72
2023/07/05 02:40:48;;;;;;;15.75;9.77;;;;;;;-146.25;100.00;52161.38;2080276;28;23400;-72
2023/07/05 02:41:50;;;;;;;17.30;9.70;;;;;;;-146.25;100.00;52157.34;2080365;28;24435;-72
2023/07/05 02:42:53;;;;;;;21.23;9.95;;;;;;;-146.25;100.00;52149.22;2080694;28;20081;-72
2023/07/05 02:43:55;;;;;;;18.77;9.70;;;;;;;-146.25;100.00;52163.41;2079677;28;26886;-74
2023/07/05 02:44:57;;;;;;;20.42;10.13;;;;;;;-146.25;100.00;52155.31;2071149;28;32001;-72
2023/07/05 02:45:59;;;;;;;23.70;10.18;;;;;;;-146.25;100.00;52153.28;2079392;28;26529;-73
2023/07/05 02:47:02;;;;;;;22.70;10.90;;;;;;;-146.25;100.00;52147.19;2087045;28;35177;-75
2023/07/05 02:48:04;;;;;;;22.63;11.50;;;;;;;-146.25;100.00;52169.50;2087539;28;27438;-73
2023/07/05 02:49:09;;;;;;;18.17;11.35;;;;;;;-146.25;100.00;52149.22;2079569;28;31942;-73
2023/07/05 02:50:14;;;;;;;18.70;12.32;;;;;;;-146.25;100.00;52169.50;2080125;28;27235;-72
2023/07/05 02:51:18;;;;;;;26.55;12.55;;;;;;;-146.25;100.00;52161.38;2079718;28;28853;-72
2023/07/05 02:52:20;;;;;;;20.33;11.75;;;;;;;-146.25;100.00;52137.06;2079522;28;30505;-73
2023/07/05 02:53:23;;;;;;;23.83;11.90;;;;;;;-146.25;100.00;52114.75;2071444;28;20042;-73
2023/07/05 02:54:27;;;;;;;19.80;11.68;;;;;;;-146.25;100.00;52157.34;2072631;28;20049;-74
2023/07/05 02:55:29;;;;;;;21.02;12.15;;;;;;;-146.25;100.00;52112.72;2079443;28;28555;-74
2023/07/05 02:56:31;;;;;;;18.40;12.57;;;;;;;-146.25;100.00;52163.41;2079350;28;31036;-74
2023/07/05 02:57:33;;;;;;;22.45;12.88;;;;;;;-146.25;100.00;52092.44;2079678;28;21010;-74
2023/07/05 02:58:37;;;;;;;20.67;14.15;;;;;;;-146.25;100.00;52112.72;2079858;28;20049;-74
2023/07/05 02:59:39;;;;;;;21.38;13.20;;;;;;;-146.25;100.00;52120.84;2072306;28;20982;-75
2023/07/05 03:00:43;;;;;;;20.58;12.80;;;;;;;-146.25;100.00;52147.19;2072207;28;20038;-74
2023/07/05 03:01:45;;;;;;;24.60;13.52;;;;;;;-146.25;100.00;52135.03;2071923;28;26932;-74
2023/07/05 03:02:51;;;;;;;21.98;13.55;;;;;;;-146.25;100.00;52133.00;2079435;28;20042;-73
2023/07/05 03:03:53;;;;;;;22.30;14.00;;;;;;;-146.25;100.00;52133.00;2071068;28;25885;-73
2023/07/05 03:04:54;;;;;;;27.90;14.60;;;;;;;-146.25;100.00;52161.38;2071437;28;25627;-72
2023/07/05 03:06:00;;;;;;;22.90;14.05;;;;;;;-146.25;100.00;52130.97;2071736;28;29880;-73
2023/07/05 03:07:02;;;;;;;24.88;14.38;;;;;;;-146.25;100.00;52161.38;2079718;28;21762;-72
2023/07/05 03:08:06;;;;;;;25.65;15.07;;;;;;;-146.25;100.00;52157.34;2071161;28;20034;-72
2023/07/05 03:09:09;;;;;;;24.63;13.93;;;;;;;-146.25;100.00;52120.84;2064240;28;20051;-72
2023/07/05 03:10:11;;;;;;;23.25;14.98;;;;;;;-146.25;100.00;52149.22;2071131;28;28289;-72
2023/07/05 03:11:13;;;;;;;23.73;14.23;;;;;;;-146.25;100.00;52137.06;2071294;28;26297;-71
2023/07/05 03:12:15;;;;;;;22.48;14.35;;;;;;;-146.25;100.00;52161.38;2072473;28;20886;-72
2023/07/05 03:13:18;;;;;;;21.00;14.45;;;;;;;-146.25;100.00;52151.25;2071750;28;20831;-71
2023/07/05 03:14:23;;;;;;;21.88;14.80;;;;;;;-146.25;100.00;52135.03;2072351;28;20172;-71
2023/07/05 03:15:25;;;;;;;22.85;14.43;;;;;;;-146.25;100.00;52163.41;2071987;28;26044;-73
2023/07/05 03:16:27;;;;;;;20.98;14.60;;;;;;;-146.25;100.00;52102.59;2079011;28;34984;-73
2023/07/05 03:17:28;;;;;;;19.58;14.48;;;;;;;-146.25;100.00;52155.31;2070724;28;34931;-73
2023/07/05 03:18:33;;;;;;;30.08;15.35;;;;;;;-146.25;100.00;52147.19;2071541;28;20415;-73
2023/07/05 03:19:35;;;;;;;25.73;15.15;;;;;;;-146.25;100.00;52116.78;2071733;28;28349;-73
2023/07/05 03:20:41;;;;;;;24.98;15.20;;;;;;;-146.25;100.00;52130.97;2071393;28;20035;-73
2023/07/05 03:21:45;;;;;;;22.60;14.93;;;;;;;-146.25;100.00;52133.00;2071773;28;23359;-73
2023/07/05 03:22:47;;;;;;;25.95;15.25;;;;;;;-146.25;100.00;52135.03;2082197;28;26879;-73
2023/07/05 03:23:49;;;;;;;26.13;15.38;;;;;;;-146.25;100.00;52185.72;2079662;28;21193;-73
2023/07/05 03:24:51;;;;;;;25.35;15.30;;;;;;;-146.25;100.00;52153.28;2071262;28;20157;-73
2023/07/05 03:26:04;;;;;;;23.38;14.73;;;;;;;-146.25;100.00;52151.25;2071613;28;20066;-72
2023/07/05 03:27:06;;;;;;;25.17;15.43;;;;;;;-146.25;100.00;52116.78;2080223;28;23876;-72
2023/07/05 03:28:08;;;;;;;27.65;15.50;;;;;;;-146.25;100.00;52139.09;2079229;28;20181;-72
2023/07/05 03:29:12;;;;;;;26.02;15.85;;;;;;;-146.25;100.00;52149.22;2079330;28;30630;-72
2023/07/05 03:30:15;;;;;;;28.10;15.68;;;;;;;-146.25;100.00;52122.88;2081746;28;20050;-72
2023/07/05 03:31:19;;;;;;;25.02;15.15;;;;;;;-146.25;100.00;52165.44;2082305;28;20045;-71
2023/07/05 03:32:22;;;;;;;23.85;16.17;;;;;;;-146.25;100.00;52128.94;2073853;28;20047;-72
2023/07/05 03:33:25;;;;;;;28.13;16.02;;;;;;;-146.25;100.00;52155.31;2074045;28;20820;-72
2023/07/05 03:34:27;;;;;;;22.52;15.48;;;;;;;-146.25;100.00;52177.59;2074399;28;26738;-73
2023/07/05 03:35:29;;;;;;;26.98;14.57;;;;;;;-146.25;100.00;52126.91;2082212;28;24541;-77
2023/07/05 03:36:30;;;;;;;24.65;15.73;;;;;;;-146.25;100.00;52139.09;2081828;28;30228;-74
2023/07/05 03:37:34;;;;;;;28.80;17.05;;;;;;;-146.25;100.00;52135.03;2081936;28;22764;-73
2023/07/05 03:38:38;;;;;;;27.13;16.98;;;;;;;-146.25;100.00;52143.13;2081562;28;20096;-72
2023/07/05 03:39:40;;;;;;;26.10;16.58;;;;;;;-146.25;100.00;52139.09;2082151;28;24893;-72
2023/07/05 03:40:42;;;;;;;29.02;17.67;;;;;;;-146.25;100.00;52167.47;2082469;28;34913;-72
2023/07/05 03:41:44;;;;;;;26.00;16.80;;;;;;;-146.25;100.00;52112.72;2082000;28;20104;-72
2023/07/05 03:42:45;;;;;;;27.17;17.50;;;;;;;-146.25;100.00;52149.22;2082325;28;21798;-72
2023/07/05 03:43:58;;;;;;;26.25;17.73;;;;;;;-146.25;100.00;52171.53;2090347;28;20080;-72
2023/07/05 03:45:00;;;;;;;24.52;16.55;;;;;;;-146.25;100.00;52153.28;2081882;28;35827;-72
2023/07/05 03:46:05;;;;;;;31.25;17.83;;;;;;;-146.25;100.00;52106.66;2081657;28;33888;-72
2023/07/05 03:47:07;;;;;;;27.55;16.90;;;;;;;-146.25;100.00;52139.09;2082037;28;35577;-72
2023/07/05 03:48:09;;;;;;;29.13;17.55;;;;;;;-146.25;100.00;52173.56;2082918;28;20054;-72
2023/07/05 03:49:11;;;;;;;26.35;17.05;;;;;;;-146.25;100.00;52124.91;2082081;28;38107;-72
2023/07/05 03:50:15;;;;;;;26.05;17.10;;;;;;;-146.25;100.00;52153.28;2082175;28;33586;-71
2023/07/05 03:51:20;;;;;;;25.20;17.55;;;;;;;-146.25;100.00;52161.38;2081391;28;34111;-71
2023/07/05 03:52:22;;;;;;;27.58;17.95;;;;;;;-146.25;100.00;52133.00;2082028;28;36555;-72
2023/07/05 03:53:25;;;;;;;27.50;16.58;;;;;;;-146.25;100.00;52149.22;2090094;28;33717;-71
2023/07/05 03:54:28;;;;;;;28.77;17.25;;;;;;;-146.25;100.00;52126.91;2090557;28;37448;-71
2023/07/05 03:55:35;;;;;;;27.40;17.08;;;;;;;-146.25;100.00;52163.41;2090632;28;31314;-71
2023/07/05 03:56:41;;;;;;;26.85;17.08;;;;;;;-146.25;100.00;52116.78;2090567;28;35305;-71
2023/07/05 03:57:44;;;;;;;25.00;17.00;;;;;;;-146.25;100.00;52155.31;2091404;28;20163;-71
2023/07/05 03:58:47;;;;;;;27.02;17.38;;;;;;;-146.25;100.00;52189.78;2090620;28;33747;-71
2023/07/05 03:59:49;;;;;;;29.15;16.00;;;;;;;-146.25;100.00;52149.22;2090223;28;39351;-71
2023/07/05 04:00:50;;;;;;;22.88;16.33;;;;;;;-146.25;100.00;52165.44;2090673;28;31469;-71
2023/07/05 04:01:55;;;;;;;19.88;15.07;;;;;;;-146.25;100.00;52173.56;2089947;28;37434;-71
2023/07/05 04:02:57;;;;;;;28.05;16.63;;;;;;;-146.25;100.00;52151.25;2090988;28;21328;-71
2023/07/05 04:04:01;;;;;;;25.58;16.17;;;;;;;-146.25;100.00;52149.22;2090110;28;37651;-72
2023/07/05 04:05:03;;;;;;;23.25;16.38;;;;;;;-146.25;100.00;52128.94;2089757;28;34561;-72
2023/07/05 04:06:08;;;;;;;22.60;16.20;;;;;;;-146.25;100.00;52137.06;2090444;28;34531;-71
2023/07/05 04:07:09;;;;;;;27.60;15.88;;;;;;;-146.25;100.00;52143.13;2089721;28;38205;-71
2023/07/05 04:08:11;;;;;;;27.02;16.17;;;;;;;-146.25;100.00;52153.28;2089978;28;21027;-71
2023/07/05 04:09:13;;;;;;;24.30;16.30;;;;;;;-146.25;100.00;52153.28;2090339;28;35898;-70
2023/07/05 04:10:15;;;;;;;23.70;15.57;;;;;;;-146.25;100.00;52116.78;2091155;28;34210;-71
2023/07/05 04:11:18;;;;;;;26.05;15.45;;;;;;;-146.25;100.00;52114.75;2090056;28;36778;-72
2023/07/05 04:12:19;;;;;;;23.30;15.00;;;;;;;-146.25;100.00;52137.06;2090019;28;37363;-71
2023/07/05 04:13:21;;;;;;;23.23;14.93;;;;;;;-146.25;100.00;52157.34;2091247;28;20029;-71
2023/07/05 04:14:23;;;;;;;26.27;14.77;;;;;;;-146.25;100.00;52124.91;2090427;28;32849;-72
2023/07/05 04:15:25;;;;;;;25.50;16.30;;;;;;;-146.25;100.00;52126.91;2090795;28;28234;-72
2023/07/05 04:16:27;;;;;;;26.45;15.90;;;;;;;-146.25;100.00;52157.34;2090517;28;35400;-74
2023/07/05 04:17:33;;;;;;;27.13;16.23;;;;;;;-146.25;100.00;52165.44;2090137;28;37234;-74
2023/07/05 04:18:36;;;;;;;22.88;14.80;;;;;;;-146.25;100.00;52112.72;2091176;28;20045;-74
2023/07/05 04:19:38;;;;;;;25.13;15.02;;;;;;;-146.25;100.00;52135.03;2090233;28;38814;-74
2023/07/05 04:20:40;;;;;;;19.30;15.23;;;;;;;-146.25;100.00;52130.97;2090494;28;35095;-73
2023/07/05 04:21:41;;;;;;;28.02;15.98;;;;;;;-146.25;100.00;52155.31;2090255;28;34178;-76
2023/07/05 04:22:43;;;;;;;23.80;15.30;;;;;;;-146.25;100.00;52130.97;2090061;28;36410;-75
2023/07/05 04:23:45;;;;;;;25.73;15.70;;;;;;;-146.25;100.00;52177.59;2081322;28;34653;-73
2023/07/05 04:24:48;;;;;;;27.02;15.63;;;;;;;-146.25;100.00;52155.31;2082432;28;20045;-73
2023/07/05 04:25:57;;;;;;;22.98;14.85;;;;;;;-146.25;100.00;52124.91;2091172;28;20045;-72
2023/07/05 04:27:03;;;;;;;21.35;15.60;;;;;;;-146.25;100.00;52157.34;2090505;28;35906;-73
2023/07/05 04:28:05;;;;;;;23.35;15.02;;;;;;;-146.25;100.00;52137.06;2081904;28;35168;-73
2023/07/05 04:29:07;;;;;;;24.05;15.45;;;;;;;-146.25;100.00;52189.78;2082241;28;32048;-73
2023/07/05 04:30:10;;;;;;;21.60;14.98;;;;;;;-146.25;100.00;52135.03;2090126;28;37951;-73
2023/07/05 04:31:19;;;;;;;24.23;15.07;;;;;;;-146.25;100.00;52137.06;2090723;28;20044;-72
2023/07/05 04:32:21;;;;;;;28.33;15.55;;;;;;;-146.25;100.00;52153.28;2090320;28;38146;-72
2023/07/05 04:33:23;;;;;;;21.13;14.27;;;;;;;-146.25;100.00;52128.94;2090400;28;33244;-73
2023/07/05 04:34:25;;;;;;;26.92;15.82;;;;;;;-146.25;100.00;52147.19;2090707;28;27862;-73
2023/07/05 04:35:29;;;;;;;24.48;15.35;;;;;;;-146.25;100.00;52137.06;2090432;28;39474;-72
2023/07/05 04:36:31;;;;;;;21.15;14.85;;;;;;;-146.25;100.00;52147.19;2090878;28;20164;-71
2023/07/05 04:37:32;;;;;;;23.08;15.10;;;;;;;-146.25;100.00;52216.13;2090376;28;36610;-72
2023/07/05 04:38:38;;;;;;;26.40;15.55;;;;;;;-146.25;100.00;52157.34;2089274;28;34142;-71
2023/07/05 04:39:40;;;;;;;20.00;14.48;;;;;;;-146.25;100.00;52161.38;2089702;28;35264;-71
2023/07/05 04:40:44;;;;;;;23.80;15.05;;;;;;;-146.25;100.00;52137.06;2089603;28;36401;-72
2023/07/05 04:41:45;;;;;;;22.25;15.18;;;;;;;-146.25;100.00;52173.56;2087768;28;31196;-71
2023/07/05 04:42:47;;;;;;;24.08;15.13;;;;;;;-146.25;100.00;52143.13;2088582;28;34712;-72
2023/07/05 04:43:51;;;;;;;24.90;15.32;;;;;;;-146.25;100.00;52124.91;2096034;28;36130;-72
2023/07/05 04:44:53;;;;;;;20.80;15.25;;;;;;;-146.25;100.00;52139.09;2096251;28;34271;-72
2023/07/05 04:45:58;;;;;;;25.55;15.18;;;;;;;-146.25;100.00;52141.13;2089022;28;36127;-72
2023/07/05 04:47:00;;;;;;;24.15;15.43;;;;;;;-146.25;100.00;52147.19;2089183;28;30357;-71
2023/07/05 04:48:02;;;;;;;23.13;15.15;;;;;;;-146.25;100.00;52151.25;2088970;28;31407;-71
2023/07/05 04:49:07;;;;;;;22.77;15.85;;;;;;;-146.25;100.00;52212.06;2088679;28;26774;-71
2023/07/05 04:50:09;;;;;;;20.20;14.70;;;;;;;-146.25;100.00;52133.00;2089469;28;20053;-71
2023/07/05 04:51:11;;;;;;;21.90;15.05;;;;;;;-146.25;100.00;52159.34;2088742;28;34761;-69
2023/07/05 04:52:13;;;;;;;24.10;15.25;;;;;;;-146.25;100.00;52149.22;2088645;28;33488;-71
2023/07/05 04:53:14;;;;;;;24.17;15.40;;;;;;;-146.25;100.00;52133.00;2088008;28;33087;-72
2023/07/05 04:54:17;;;;;;;21.67;15.27;;;;;;;-146.25;100.00;52161.38;2088904;28;36885;-73